Miley Memorial Field Big Piney US
ICAO: KBPI
IATA: BPI
Category: Medium
Scheduled Services: No

Elevation: 6990 ft
TransAlt. 18000 ft.

Airport Communications:
ASOS:135.225
CASPER RDO:122.3
CTAF/UNICOM:122.8

KBPI Zoom In..

Runways:

(A) RW 08 length 3301 ft width 60 ft
---- / hdg 77

(B) RW 13 length 6802 ft width 75 ft
---- / hdg 132

(C) RW 26 length 3301 ft width 60 ft
---- / hdg 257

(D) RW 31 length 6802 ft width 75 ft
---- / hdg 312

Location; KBPI
Day. 24 / Time. 12.53 Zulu
* Altimeter: 30.22
* Temperature: 05° c. 41°f.
* Wind from: 080° Speed 03 kn.
Dewpoint: 04° c.
Visibility: 10 Statute Miles.
Clouds: Broken 6500 ft.

KBPI 241253Z AUTO 08003KT 10SM BKN065 05/04 A3022 RMK AO2 SLP170 T00500044


Wind From 080°
Speed 03 kn.

 
 
jpsmedia.com for Web Design SOUNDCLOUD worldairports.se 2018   terms of use